sensor_id;sensor_type;location;lat;lon;timestamp;P1;durP1;ratioP1;P2;durP2;ratioP2
64684;SDS011;51109;47.414;18.954;2022-12-16T00:01:14;9.30;;;4.15;;
64684;SDS011;51109;47.414;18.954;2022-12-16T00:03:45;14.80;;;5.90;;
64684;SDS011;51109;47.414;18.954;2022-12-16T00:06:12;17.35;;;5.22;;
64684;SDS011;51109;47.414;18.954;2022-12-16T00:08:38;16.85;;;6.65;;
64684;SDS011;51109;47.414;18.954;2022-12-16T00:11:05;9.13;;;4.60;;
64684;SDS011;51109;47.414;18.954;2022-12-16T00:13:32;9.05;;;3.85;;
64684;SDS011;51109;47.414;18.954;2022-12-16T00:16:02;4.10;;;2.90;;
64684;SDS011;51109;47.414;18.954;2022-12-16T00:20:59;5.65;;;3.03;;
64684;SDS011;51109;47.414;18.954;2022-12-16T00:23:25;11.77;;;4.43;;
64684;SDS011;51109;47.414;18.954;2022-12-16T00:25:52;8.30;;;4.97;;
64684;SDS011;51109;47.414;18.954;2022-12-16T00:28:17;15.18;;;5.90;;
64684;SDS011;51109;47.414;18.954;2022-12-16T00:30:48;11.00;;;4.38;;
64684;SDS011;51109;47.414;18.954;2022-12-16T00:33:15;15.23;;;3.67;;
64684;SDS011;51109;47.414;18.954;2022-12-16T00:35:42;12.88;;;4.03;;
64684;SDS011;51109;47.414;18.954;2022-12-16T00:38:08;16.15;;;6.93;;
64684;SDS011;51109;47.414;18.954;2022-12-16T00:40:34;10.52;;;4.55;;
64684;SDS011;51109;47.414;18.954;2022-12-16T00:43:00;7.53;;;4.50;;
64684;SDS011;51109;47.414;18.954;2022-12-16T00:45:26;10.15;;;4.03;;
64684;SDS011;51109;47.414;18.954;2022-12-16T00:47:52;12.30;;;5.80;;
64684;SDS011;51109;47.414;18.954;2022-12-16T00:50:18;8.15;;;4.35;;
64684;SDS011;51109;47.414;18.954;2022-12-16T00:52:45;11.15;;;6.07;;
64684;SDS011;51109;47.414;18.954;2022-12-16T00:55:12;7.03;;;3.88;;
64684;SDS011;51109;47.414;18.954;2022-12-16T00:57:39;12.00;;;5.30;;
64684;SDS011;51109;47.414;18.954;2022-12-16T01:00:05;7.30;;;3.47;;
64684;SDS011;51109;47.414;18.954;2022-12-16T01:02:46;10.93;;;3.05;;
64684;SDS011;51109;47.414;18.954;2022-12-16T01:05:14;9.98;;;5.10;;
64684;SDS011;51109;47.414;18.954;2022-12-16T01:07:42;11.68;;;5.90;;
64684;SDS011;51109;47.414;18.954;2022-12-16T01:10:09;6.85;;;2.97;;
64684;SDS011;51109;47.414;18.954;2022-12-16T01:12:35;2.78;;;1.70;;
64684;SDS011;51109;47.414;18.954;2022-12-16T01:15:02;7.15;;;4.53;;
64684;SDS011;51109;47.414;18.954;2022-12-16T01:17:29;5.28;;;3.28;;
64684;SDS011;51109;47.414;18.954;2022-12-16T01:19:55;13.10;;;4.78;;
64684;SDS011;51109;47.414;18.954;2022-12-16T01:22:21;9.05;;;5.35;;
64684;SDS011;51109;47.414;18.954;2022-12-16T01:24:47;8.18;;;4.38;;
64684;SDS011;51109;47.414;18.954;2022-12-16T01:27:13;12.18;;;6.38;;
64684;SDS011;51109;47.414;18.954;2022-12-16T01:29:40;14.23;;;5.50;;
64684;SDS011;51109;47.414;18.954;2022-12-16T01:32:07;3.85;;;2.97;;
64684;SDS011;51109;47.414;18.954;2022-12-16T01:34:36;8.65;;;5.28;;
64684;SDS011;51109;47.414;18.954;2022-12-16T01:37:02;9.45;;;5.25;;
64684;SDS011;51109;47.414;18.954;2022-12-16T01:39:27;8.23;;;5.07;;
64684;SDS011;51109;47.414;18.954;2022-12-16T01:41:54;7.10;;;3.75;;
64684;SDS011;51109;47.414;18.954;2022-12-16T01:44:24;8.07;;;4.53;;
64684;SDS011;51109;47.414;18.954;2022-12-16T01:46:55;8.77;;;4.90;;
64684;SDS011;51109;47.414;18.954;2022-12-16T01:52:03;3.35;;;2.58;;
64684;SDS011;51109;47.414;18.954;2022-12-16T01:54:36;11.60;;;4.63;;
64684;SDS011;51109;47.414;18.954;2022-12-16T01:57:08;7.88;;;3.70;;
64684;SDS011;51109;47.414;18.954;2022-12-16T01:59:38;5.72;;;3.58;;
64684;SDS011;51109;47.414;18.954;2022-12-16T02:02:08;10.13;;;4.80;;
64684;SDS011;51109;47.414;18.954;2022-12-16T02:04:35;6.18;;;4.43;;
64684;SDS011;51109;47.414;18.954;2022-12-16T02:07:21;7.45;;;4.95;;
64684;SDS011;51109;47.414;18.954;2022-12-16T02:09:47;4.57;;;2.38;;
64684;SDS011;51109;47.414;18.954;2022-12-16T02:17:26;10.43;;;5.20;;
64684;SDS011;51109;47.414;18.954;2022-12-16T02:36:31;7.70;;;4.75;;
64684;SDS011;51109;47.414;18.954;2022-12-16T02:39:19;6.97;;;4.35;;
64684;SDS011;51109;47.414;18.954;2022-12-16T02:42:06;5.47;;;2.70;;
64684;SDS011;51109;47.414;18.954;2022-12-16T02:44:46;5.45;;;4.63;;
64684;SDS011;51109;47.414;18.954;2022-12-16T02:47:19;11.27;;;6.60;;
64684;SDS011;51109;47.414;18.954;2022-12-16T02:52:12;14.00;;;6.65;;
64684;SDS011;51109;47.414;18.954;2022-12-16T02:54:39;10.65;;;6.60;;
64684;SDS011;51109;47.414;18.954;2022-12-16T03:02:15;6.32;;;4.47;;
64684;SDS011;51109;47.414;18.954;2022-12-16T03:04:53;8.93;;;4.37;;
64684;SDS011;51109;47.414;18.954;2022-12-16T03:07:25;9.50;;;5.25;;
64684;SDS011;51109;47.414;18.954;2022-12-16T03:09:56;12.50;;;6.78;;
64684;SDS011;51109;47.414;18.954;2022-12-16T03:12:24;5.45;;;3.17;;
64684;SDS011;51109;47.414;18.954;2022-12-16T03:14:51;7.28;;;4.85;;
64684;SDS011;51109;47.414;18.954;2022-12-16T03:17:19;8.57;;;4.80;;
64684;SDS011;51109;47.414;18.954;2022-12-16T03:19:49;6.20;;;4.50;;
64684;SDS011;51109;47.414;18.954;2022-12-16T03:22:22;14.43;;;5.68;;
64684;SDS011;51109;47.414;18.954;2022-12-16T03:24:52;8.70;;;5.07;;
64684;SDS011;51109;47.414;18.954;2022-12-16T03:27:35;3.65;;;2.08;;
64684;SDS011;51109;47.414;18.954;2022-12-16T03:30:14;3.95;;;3.13;;
64684;SDS011;51109;47.414;18.954;2022-12-16T03:32:50;4.15;;;3.22;;
64684;SDS011;51109;47.414;18.954;2022-12-16T03:37:53;6.93;;;4.45;;
64684;SDS011;51109;47.414;18.954;2022-12-16T03:40:22;6.57;;;4.07;;
64684;SDS011;51109;47.414;18.954;2022-12-16T03:42:51;4.65;;;3.40;;
64684;SDS011;51109;47.414;18.954;2022-12-16T03:45:21;6.97;;;3.58;;
64684;SDS011;51109;47.414;18.954;2022-12-16T03:47:55;8.10;;;4.93;;
64684;SDS011;51109;47.414;18.954;2022-12-16T03:50:31;12.75;;;3.58;;
64684;SDS011;51109;47.414;18.954;2022-12-16T03:52:58;7.15;;;4.15;;
64684;SDS011;51109;47.414;18.954;2022-12-16T03:55:24;6.45;;;4.72;;
64684;SDS011;51109;47.414;18.954;2022-12-16T03:57:50;3.88;;;2.75;;
64684;SDS011;51109;47.414;18.954;2022-12-16T04:00:16;4.22;;;2.67;;
64684;SDS011;51109;47.414;18.954;2022-12-16T04:02:42;1.77;;;1.38;;
64684;SDS011;51109;47.414;18.954;2022-12-16T04:05:08;5.15;;;3.17;;
64684;SDS011;51109;47.414;18.954;2022-12-16T04:07:35;5.18;;;3.30;;
64684;SDS011;51109;47.414;18.954;2022-12-16T04:10:01;6.45;;;3.40;;
64684;SDS011;51109;47.414;18.954;2022-12-16T04:12:27;3.40;;;3.10;;
64684;SDS011;51109;47.414;18.954;2022-12-16T04:15:12;13.57;;;4.22;;
64684;SDS011;51109;47.414;18.954;2022-12-16T04:17:56;7.55;;;4.03;;
64684;SDS011;51109;47.414;18.954;2022-12-16T04:20:42;11.18;;;4.00;;
64684;SDS011;51109;47.414;18.954;2022-12-16T04:23:35;15.32;;;5.32;;
64684;SDS011;51109;47.414;18.954;2022-12-16T04:26:22;6.95;;;3.88;;
64684;SDS011;51109;47.414;18.954;2022-12-16T04:28:49;9.35;;;5.03;;
64684;SDS011;51109;47.414;18.954;2022-12-16T04:31:15;6.50;;;4.35;;
64684;SDS011;51109;47.414;18.954;2022-12-16T04:33:41;7.22;;;3.80;;
64684;SDS011;51109;47.414;18.954;2022-12-16T04:36:25;9.10;;;5.25;;
64684;SDS011;51109;47.414;18.954;2022-12-16T04:39:10;9.02;;;4.65;;
64684;SDS011;51109;47.414;18.954;2022-12-16T04:41:55;5.32;;;2.63;;
64684;SDS011;51109;47.414;18.954;2022-12-16T04:44:40;8.50;;;5.28;;
64684;SDS011;51109;47.414;18.954;2022-12-16T04:47:24;4.30;;;3.03;;
64684;SDS011;51109;47.414;18.954;2022-12-16T04:50:09;6.63;;;4.70;;
64684;SDS011;51109;47.414;18.954;2022-12-16T04:53:13;6.95;;;5.47;;
64684;SDS011;51109;47.414;18.954;2022-12-16T04:55:57;8.52;;;4.38;;
64684;SDS011;51109;47.414;18.954;2022-12-16T04:58:42;11.57;;;7.22;;
64684;SDS011;51109;47.414;18.954;2022-12-16T05:01:27;16.05;;;6.00;;
64684;SDS011;51109;47.414;18.954;2022-12-16T05:04:11;13.68;;;5.43;;
64684;SDS011;51109;47.414;18.954;2022-12-16T05:06:56;21.60;;;6.53;;
64684;SDS011;51109;47.414;18.954;2022-12-16T05:09:41;21.48;;;7.97;;
64684;SDS011;51109;47.414;18.954;2022-12-16T05:12:25;12.73;;;5.90;;
64684;SDS011;51109;47.414;18.954;2022-12-16T05:15:09;14.93;;;5.55;;
64684;SDS011;51109;47.414;18.954;2022-12-16T05:17:54;17.73;;;7.15;;
64684;SDS011;51109;47.414;18.954;2022-12-16T05:20:39;7.18;;;4.95;;
64684;SDS011;51109;47.414;18.954;2022-12-16T05:23:23;22.02;;;7.68;;
64684;SDS011;51109;47.414;18.954;2022-12-16T05:26:07;20.02;;;7.68;;
64684;SDS011;51109;47.414;18.954;2022-12-16T05:28:52;15.50;;;6.40;;
64684;SDS011;51109;47.414;18.954;2022-12-16T05:31:36;18.70;;;6.40;;
64684;SDS011;51109;47.414;18.954;2022-12-16T05:34:21;14.75;;;7.05;;
64684;SDS011;51109;47.414;18.954;2022-12-16T05:37:06;15.95;;;7.65;;
64684;SDS011;51109;47.414;18.954;2022-12-16T05:39:50;12.82;;;6.85;;
64684;SDS011;51109;47.414;18.954;2022-12-16T05:42:35;23.08;;;9.80;;
64684;SDS011;51109;47.414;18.954;2022-12-16T05:45:19;20.20;;;7.55;;
64684;SDS011;51109;47.414;18.954;2022-12-16T05:48:04;15.52;;;6.95;;
64684;SDS011;51109;47.414;18.954;2022-12-16T05:50:49;15.15;;;7.25;;
64684;SDS011;51109;47.414;18.954;2022-12-16T05:53:34;21.45;;;8.07;;
64684;SDS011;51109;47.414;18.954;2022-12-16T05:56:19;14.40;;;6.43;;
64684;SDS011;51109;47.414;18.954;2022-12-16T05:59:03;19.83;;;9.10;;
64684;SDS011;51109;47.414;18.954;2022-12-16T06:01:48;16.73;;;7.55;;
64684;SDS011;51109;47.414;18.954;2022-12-16T06:04:32;13.68;;;6.72;;
64684;SDS011;51109;47.414;18.954;2022-12-16T06:07:17;27.83;;;8.38;;
64684;SDS011;51109;47.414;18.954;2022-12-16T06:10:01;15.15;;;6.82;;
64684;SDS011;51109;47.414;18.954;2022-12-16T06:12:46;12.30;;;4.93;;
64684;SDS011;51109;47.414;18.954;2022-12-16T06:15:31;16.70;;;7.82;;
64684;SDS011;51109;47.414;18.954;2022-12-16T06:18:15;22.92;;;8.20;;
64684;SDS011;51109;47.414;18.954;2022-12-16T06:21:00;24.23;;;9.45;;
64684;SDS011;51109;47.414;18.954;2022-12-16T06:23:44;23.33;;;10.57;;
64684;SDS011;51109;47.414;18.954;2022-12-16T06:26:29;19.63;;;9.50;;
64684;SDS011;51109;47.414;18.954;2022-12-16T06:29:13;12.32;;;6.30;;
64684;SDS011;51109;47.414;18.954;2022-12-16T06:31:58;16.75;;;7.75;;
64684;SDS011;51109;47.414;18.954;2022-12-16T06:34:43;29.65;;;11.30;;
64684;SDS011;51109;47.414;18.954;2022-12-16T06:37:27;19.48;;;9.55;;
64684;SDS011;51109;47.414;18.954;2022-12-16T06:40:12;22.42;;;7.55;;
64684;SDS011;51109;47.414;18.954;2022-12-16T06:42:56;17.13;;;8.93;;
64684;SDS011;51109;47.414;18.954;2022-12-16T06:45:40;18.20;;;7.43;;
64684;SDS011;51109;47.414;18.954;2022-12-16T06:48:25;20.58;;;6.60;;
64684;SDS011;51109;47.414;18.954;2022-12-16T06:51:09;16.58;;;8.98;;
64684;SDS011;51109;47.414;18.954;2022-12-16T06:53:54;17.20;;;9.05;;
64684;SDS011;51109;47.414;18.954;2022-12-16T06:56:38;15.85;;;7.68;;
64684;SDS011;51109;47.414;18.954;2022-12-16T06:59:22;15.27;;;8.23;;
64684;SDS011;51109;47.414;18.954;2022-12-16T07:02:08;19.90;;;9.10;;
64684;SDS011;51109;47.414;18.954;2022-12-16T07:04:53;39.78;;;9.38;;
64684;SDS011;51109;47.414;18.954;2022-12-16T07:07:38;22.77;;;8.75;;
64684;SDS011;51109;47.414;18.954;2022-12-16T07:10:29;30.48;;;11.32;;
64684;SDS011;51109;47.414;18.954;2022-12-16T07:13:14;22.50;;;9.23;;
64684;SDS011;51109;47.414;18.954;2022-12-16T07:15:58;23.88;;;9.57;;
64684;SDS011;51109;47.414;18.954;2022-12-16T07:18:43;32.53;;;10.25;;
64684;SDS011;51109;47.414;18.954;2022-12-16T07:21:27;20.65;;;9.02;;
64684;SDS011;51109;47.414;18.954;2022-12-16T07:24:11;20.33;;;10.15;;
64684;SDS011;51109;47.414;18.954;2022-12-16T07:26:56;24.23;;;10.32;;
64684;SDS011;51109;47.414;18.954;2022-12-16T07:29:40;29.92;;;9.23;;
64684;SDS011;51109;47.414;18.954;2022-12-16T07:32:25;23.38;;;10.50;;
64684;SDS011;51109;47.414;18.954;2022-12-16T07:35:09;30.45;;;10.70;;
64684;SDS011;51109;47.414;18.954;2022-12-16T07:37:54;30.33;;;11.38;;
64684;SDS011;51109;47.414;18.954;2022-12-16T07:40:39;29.80;;;10.18;;
64684;SDS011;51109;47.414;18.954;2022-12-16T07:43:23;25.83;;;9.02;;
64684;SDS011;51109;47.414;18.954;2022-12-16T07:46:08;30.77;;;12.43;;
64684;SDS011;51109;47.414;18.954;2022-12-16T07:48:53;26.83;;;11.52;;
64684;SDS011;51109;47.414;18.954;2022-12-16T07:51:37;19.00;;;8.07;;
64684;SDS011;51109;47.414;18.954;2022-12-16T07:54:22;28.58;;;11.02;;
64684;SDS011;51109;47.414;18.954;2022-12-16T07:57:06;26.75;;;10.93;;
64684;SDS011;51109;47.414;18.954;2022-12-16T07:59:51;30.30;;;11.90;;
64684;SDS011;51109;47.414;18.954;2022-12-16T08:02:35;29.08;;;11.95;;
64684;SDS011;51109;47.414;18.954;2022-12-16T08:05:20;33.10;;;12.90;;
64684;SDS011;51109;47.414;18.954;2022-12-16T08:08:04;33.17;;;11.88;;
64684;SDS011;51109;47.414;18.954;2022-12-16T08:10:49;24.90;;;10.38;;
64684;SDS011;51109;47.414;18.954;2022-12-16T08:13:33;26.13;;;10.25;;
64684;SDS011;51109;47.414;18.954;2022-12-16T08:16:17;30.30;;;10.88;;
64684;SDS011;51109;47.414;18.954;2022-12-16T08:19:02;36.10;;;12.13;;
64684;SDS011;51109;47.414;18.954;2022-12-16T08:21:47;29.85;;;10.57;;
64684;SDS011;51109;47.414;18.954;2022-12-16T08:24:31;31.35;;;11.93;;
64684;SDS011;51109;47.414;18.954;2022-12-16T08:27:16;29.23;;;12.00;;
64684;SDS011;51109;47.414;18.954;2022-12-16T08:30:00;32.15;;;11.30;;
64684;SDS011;51109;47.414;18.954;2022-12-16T08:32:45;25.02;;;10.98;;
64684;SDS011;51109;47.414;18.954;2022-12-16T08:35:29;25.67;;;11.15;;
64684;SDS011;51109;47.414;18.954;2022-12-16T08:38:14;31.80;;;11.20;;
64684;SDS011;51109;47.414;18.954;2022-12-16T08:40:58;25.40;;;10.98;;
64684;SDS011;51109;47.414;18.954;2022-12-16T08:43:43;26.13;;;13.00;;
64684;SDS011;51109;47.414;18.954;2022-12-16T08:46:27;23.67;;;12.13;;
64684;SDS011;51109;47.414;18.954;2022-12-16T08:49:12;24.42;;;9.25;;
64684;SDS011;51109;47.414;18.954;2022-12-16T08:51:56;30.67;;;13.35;;
64684;SDS011;51109;47.414;18.954;2022-12-16T08:54:41;29.25;;;12.70;;
64684;SDS011;51109;47.414;18.954;2022-12-16T08:57:25;27.23;;;12.38;;
64684;SDS011;51109;47.414;18.954;2022-12-16T09:00:10;23.05;;;11.15;;
64684;SDS011;51109;47.414;18.954;2022-12-16T09:02:55;25.58;;;12.77;;
64684;SDS011;51109;47.414;18.954;2022-12-16T09:05:42;22.88;;;10.27;;
64684;SDS011;51109;47.414;18.954;2022-12-16T09:08:28;24.33;;;12.43;;
64684;SDS011;51109;47.414;18.954;2022-12-16T09:11:13;28.52;;;11.98;;
64684;SDS011;51109;47.414;18.954;2022-12-16T09:13:57;30.98;;;12.48;;
64684;SDS011;51109;47.414;18.954;2022-12-16T09:16:42;28.65;;;13.23;;
64684;SDS011;51109;47.414;18.954;2022-12-16T09:19:26;29.50;;;12.20;;
64684;SDS011;51109;47.414;18.954;2022-12-16T09:22:11;24.63;;;11.65;;
64684;SDS011;51109;47.414;18.954;2022-12-16T09:24:55;27.95;;;12.93;;
64684;SDS011;51109;47.414;18.954;2022-12-16T09:27:40;24.33;;;11.80;;
64684;SDS011;51109;47.414;18.954;2022-12-16T09:30:24;30.00;;;14.05;;
64684;SDS011;51109;47.414;18.954;2022-12-16T09:33:09;35.13;;;14.23;;
64684;SDS011;51109;47.414;18.954;2022-12-16T09:35:53;34.75;;;13.68;;
64684;SDS011;51109;47.414;18.954;2022-12-16T09:38:38;39.58;;;14.20;;
64684;SDS011;51109;47.414;18.954;2022-12-16T09:44:13;28.02;;;11.82;;
64684;SDS011;51109;47.414;18.954;2022-12-16T09:47:16;40.58;;;15.38;;
64684;SDS011;51109;47.414;18.954;2022-12-16T09:50:24;39.35;;;14.32;;
64684;SDS011;51109;47.414;18.954;2022-12-16T09:53:14;36.08;;;13.45;;
64684;SDS011;51109;47.414;18.954;2022-12-16T09:56:04;32.42;;;13.95;;
64684;SDS011;51109;47.414;18.954;2022-12-16T09:59:00;30.42;;;13.98;;
64684;SDS011;51109;47.414;18.954;2022-12-16T10:01:48;36.03;;;12.70;;
64684;SDS011;51109;47.414;18.954;2022-12-16T10:04:34;35.05;;;12.63;;
64684;SDS011;51109;47.414;18.954;2022-12-16T10:07:19;44.63;;;14.85;;
64684;SDS011;51109;47.414;18.954;2022-12-16T10:25:39;28.48;;;12.82;;
64684;SDS011;51109;47.414;18.954;2022-12-16T10:37:03;37.60;;;12.90;;
64684;SDS011;51109;47.414;18.954;2022-12-16T10:39:55;44.13;;;13.18;;
64684;SDS011;51109;47.414;18.954;2022-12-16T10:43:30;27.30;;;11.32;;
64684;SDS011;51109;47.414;18.954;2022-12-16T10:46:11;23.83;;;9.98;;
64684;SDS011;51109;47.414;18.954;2022-12-16T10:49:01;30.05;;;11.15;;
64684;SDS011;51109;47.414;18.954;2022-12-16T10:51:46;25.42;;;11.02;;
64684;SDS011;51109;47.414;18.954;2022-12-16T10:54:40;35.47;;;10.70;;
64684;SDS011;51109;47.414;18.954;2022-12-16T11:03:28;34.22;;;10.35;;
64684;SDS011;51109;47.414;18.954;2022-12-16T11:06:17;34.22;;;12.20;;
64684;SDS011;51109;47.414;18.954;2022-12-16T11:09:19;42.67;;;10.85;;
64684;SDS011;51109;47.414;18.954;2022-12-16T11:12:27;35.33;;;11.73;;
64684;SDS011;51109;47.414;18.954;2022-12-16T11:15:19;47.28;;;13.48;;
64684;SDS011;51109;47.414;18.954;2022-12-16T11:18:10;40.88;;;11.75;;
64684;SDS011;51109;47.414;18.954;2022-12-16T11:21:04;36.22;;;12.50;;
64684;SDS011;51109;47.414;18.954;2022-12-16T11:24:11;41.35;;;11.55;;
64684;SDS011;51109;47.414;18.954;2022-12-16T11:27:05;39.88;;;12.63;;
64684;SDS011;51109;47.414;18.954;2022-12-16T11:30:21;27.40;;;11.90;;
64684;SDS011;51109;47.414;18.954;2022-12-16T11:33:18;35.35;;;11.02;;
64684;SDS011;51109;47.414;18.954;2022-12-16T11:36:09;46.90;;;13.57;;
64684;SDS011;51109;47.414;18.954;2022-12-16T11:38:59;45.50;;;14.27;;
64684;SDS011;51109;47.414;18.954;2022-12-16T11:41:46;41.92;;;11.60;;
64684;SDS011;51109;47.414;18.954;2022-12-16T11:44:39;39.25;;;12.43;;
64684;SDS011;51109;47.414;18.954;2022-12-16T11:50:26;35.60;;;11.60;;
64684;SDS011;51109;47.414;18.954;2022-12-16T11:56:06;43.20;;;16.20;;
64684;SDS011;51109;47.414;18.954;2022-12-16T11:58:53;38.60;;;14.57;;
64684;SDS011;51109;47.414;18.954;2022-12-16T12:01:51;36.22;;;11.75;;
64684;SDS011;51109;47.414;18.954;2022-12-16T12:04:42;36.40;;;9.55;;
64684;SDS011;51109;47.414;18.954;2022-12-16T12:07:34;47.40;;;13.68;;
64684;SDS011;51109;47.414;18.954;2022-12-16T12:10:41;28.30;;;12.68;;
64684;SDS011;51109;47.414;18.954;2022-12-16T12:19:33;22.83;;;9.40;;
64684;SDS011;51109;47.414;18.954;2022-12-16T12:22:29;25.00;;;8.40;;
64684;SDS011;51109;47.414;18.954;2022-12-16T12:31:36;33.75;;;9.55;;
64684;SDS011;51109;47.414;18.954;2022-12-16T12:37:48;26.42;;;10.07;;
64684;SDS011;51109;47.414;18.954;2022-12-16T12:40:58;28.73;;;9.57;;
64684;SDS011;51109;47.414;18.954;2022-12-16T12:44:05;26.70;;;9.57;;
64684;SDS011;51109;47.414;18.954;2022-12-16T12:47:04;33.60;;;12.85;;
64684;SDS011;51109;47.414;18.954;2022-12-16T12:50:04;29.65;;;10.27;;
64684;SDS011;51109;47.414;18.954;2022-12-16T12:59:15;27.90;;;9.65;;
64684;SDS011;51109;47.414;18.954;2022-12-16T13:02:10;28.58;;;8.55;;
64684;SDS011;51109;47.414;18.954;2022-12-16T13:04:58;22.88;;;8.95;;
64684;SDS011;51109;47.414;18.954;2022-12-16T13:07:43;12.60;;;6.10;;
64684;SDS011;51109;47.414;18.954;2022-12-16T13:10:31;13.88;;;6.68;;
64684;SDS011;51109;47.414;18.954;2022-12-16T13:13:27;11.50;;;6.07;;
64684;SDS011;51109;47.414;18.954;2022-12-16T13:16:54;12.82;;;5.57;;
64684;SDS011;51109;47.414;18.954;2022-12-16T13:19:39;12.02;;;7.32;;
64684;SDS011;51109;47.414;18.954;2022-12-16T13:22:36;9.80;;;5.22;;
64684;SDS011;51109;47.414;18.954;2022-12-16T13:28:26;12.43;;;5.85;;
64684;SDS011;51109;47.414;18.954;2022-12-16T13:31:14;7.93;;;5.70;;
64684;SDS011;51109;47.414;18.954;2022-12-16T13:34:04;14.57;;;6.55;;
64684;SDS011;51109;47.414;18.954;2022-12-16T13:37:03;13.80;;;6.35;;
64684;SDS011;51109;47.414;18.954;2022-12-16T13:43:43;17.45;;;7.63;;
64684;SDS011;51109;47.414;18.954;2022-12-16T13:46:45;13.43;;;7.30;;
64684;SDS011;51109;47.414;18.954;2022-12-16T13:55:34;14.40;;;7.85;;
64684;SDS011;51109;47.414;18.954;2022-12-16T14:04:33;11.55;;;6.07;;
64684;SDS011;51109;47.414;18.954;2022-12-16T14:07:20;16.55;;;7.10;;
64684;SDS011;51109;47.414;18.954;2022-12-16T14:25:54;19.88;;;8.15;;
64684;SDS011;51109;47.414;18.954;2022-12-16T14:28:40;13.23;;;6.00;;
64684;SDS011;51109;47.414;18.954;2022-12-16T14:31:37;10.25;;;5.13;;
64684;SDS011;51109;47.414;18.954;2022-12-16T14:34:24;13.77;;;6.60;;
64684;SDS011;51109;47.414;18.954;2022-12-16T14:37:20;9.57;;;6.57;;
64684;SDS011;51109;47.414;18.954;2022-12-16T14:40:51;12.65;;;6.40;;
64684;SDS011;51109;47.414;18.954;2022-12-16T14:43:24;10.98;;;5.97;;
64684;SDS011;51109;47.414;18.954;2022-12-16T14:49:17;15.32;;;6.88;;
64684;SDS011;51109;47.414;18.954;2022-12-16T14:52:20;11.35;;;6.30;;
64684;SDS011;51109;47.414;18.954;2022-12-16T14:58:07;14.55;;;8.77;;
64684;SDS011;51109;47.414;18.954;2022-12-16T15:00:53;20.95;;;10.25;;
64684;SDS011;51109;47.414;18.954;2022-12-16T15:03:41;23.13;;;10.02;;
64684;SDS011;51109;47.414;18.954;2022-12-16T15:06:30;22.73;;;7.38;;
64684;SDS011;51109;47.414;18.954;2022-12-16T15:09:41;20.65;;;7.30;;
64684;SDS011;51109;47.414;18.954;2022-12-16T15:12:27;12.13;;;6.10;;
64684;SDS011;51109;47.414;18.954;2022-12-16T15:15:19;11.05;;;6.13;;
64684;SDS011;51109;47.414;18.954;2022-12-16T15:18:09;13.13;;;6.63;;
64684;SDS011;51109;47.414;18.954;2022-12-16T15:21:01;16.05;;;9.02;;
64684;SDS011;51109;47.414;18.954;2022-12-16T15:23:45;14.60;;;7.53;;
64684;SDS011;51109;47.414;18.954;2022-12-16T15:26:30;8.73;;;5.90;;
64684;SDS011;51109;47.414;18.954;2022-12-16T15:29:32;19.55;;;8.10;;
64684;SDS011;51109;47.414;18.954;2022-12-16T15:35:22;7.53;;;5.72;;
64684;SDS011;51109;47.414;18.954;2022-12-16T15:38:29;6.85;;;2.75;;
64684;SDS011;51109;47.414;18.954;2022-12-16T15:41:30;8.27;;;5.45;;
64684;SDS011;51109;47.414;18.954;2022-12-16T15:44:17;16.00;;;7.88;;
64684;SDS011;51109;47.414;18.954;2022-12-16T15:50:13;9.18;;;5.82;;
64684;SDS011;51109;47.414;18.954;2022-12-16T16:02:27;21.45;;;9.85;;
64684;SDS011;51109;47.414;18.954;2022-12-16T16:05:17;19.27;;;7.90;;
64684;SDS011;51109;47.414;18.954;2022-12-16T16:08:04;20.42;;;9.93;;
64684;SDS011;51109;47.414;18.954;2022-12-16T16:10:49;17.73;;;7.95;;
64684;SDS011;51109;47.414;18.954;2022-12-16T16:13:33;10.25;;;5.43;;
64684;SDS011;51109;47.414;18.954;2022-12-16T16:16:18;12.45;;;4.97;;
64684;SDS011;51109;47.414;18.954;2022-12-16T16:19:02;12.60;;;7.10;;
64684;SDS011;51109;47.414;18.954;2022-12-16T16:21:47;13.50;;;6.25;;
64684;SDS011;51109;47.414;18.954;2022-12-16T16:24:31;9.68;;;4.88;;
64684;SDS011;51109;47.414;18.954;2022-12-16T16:27:15;13.02;;;6.32;;
64684;SDS011;51109;47.414;18.954;2022-12-16T16:30:02;16.92;;;7.53;;
64684;SDS011;51109;47.414;18.954;2022-12-16T16:32:52;19.35;;;7.57;;
64684;SDS011;51109;47.414;18.954;2022-12-16T16:35:39;18.38;;;7.18;;
64684;SDS011;51109;47.414;18.954;2022-12-16T16:38:32;21.48;;;7.00;;
64684;SDS011;51109;47.414;18.954;2022-12-16T16:41:17;17.30;;;5.53;;
64684;SDS011;51109;47.414;18.954;2022-12-16T16:44:01;3.95;;;2.58;;
64684;SDS011;51109;47.414;18.954;2022-12-16T16:46:46;8.48;;;4.53;;
64684;SDS011;51109;47.414;18.954;2022-12-16T16:49:35;11.13;;;5.88;;
64684;SDS011;51109;47.414;18.954;2022-12-16T16:52:28;10.20;;;5.20;;
64684;SDS011;51109;47.414;18.954;2022-12-16T16:55:14;13.55;;;5.82;;
64684;SDS011;51109;47.414;18.954;2022-12-16T16:57:59;14.10;;;5.55;;
64684;SDS011;51109;47.414;18.954;2022-12-16T17:00:43;10.15;;;5.50;;
64684;SDS011;51109;47.414;18.954;2022-12-16T17:03:28;10.15;;;4.18;;
64684;SDS011;51109;47.414;18.954;2022-12-16T17:06:12;10.00;;;5.10;;
64684;SDS011;51109;47.414;18.954;2022-12-16T17:08:57;7.07;;;3.38;;
64684;SDS011;51109;47.414;18.954;2022-12-16T17:11:41;17.48;;;6.13;;
64684;SDS011;51109;47.414;18.954;2022-12-16T17:14:25;9.45;;;5.47;;
64684;SDS011;51109;47.414;18.954;2022-12-16T17:17:10;9.30;;;4.82;;
64684;SDS011;51109;47.414;18.954;2022-12-16T17:19:55;11.82;;;7.25;;
64684;SDS011;51109;47.414;18.954;2022-12-16T17:22:39;10.88;;;5.07;;
64684;SDS011;51109;47.414;18.954;2022-12-16T17:25:24;12.80;;;4.90;;
64684;SDS011;51109;47.414;18.954;2022-12-16T17:28:12;16.02;;;7.68;;
64684;SDS011;51109;47.414;18.954;2022-12-16T17:30:57;12.52;;;4.90;;
64684;SDS011;51109;47.414;18.954;2022-12-16T17:33:41;14.55;;;7.68;;
64684;SDS011;51109;47.414;18.954;2022-12-16T17:36:26;16.75;;;6.20;;
64684;SDS011;51109;47.414;18.954;2022-12-16T17:39:10;14.93;;;4.28;;
64684;SDS011;51109;47.414;18.954;2022-12-16T17:41:55;13.07;;;4.80;;
64684;SDS011;51109;47.414;18.954;2022-12-16T17:44:40;28.05;;;9.43;;
64684;SDS011;51109;47.414;18.954;2022-12-16T17:47:24;10.43;;;5.38;;
64684;SDS011;51109;47.414;18.954;2022-12-16T17:50:09;12.80;;;6.03;;
64684;SDS011;51109;47.414;18.954;2022-12-16T17:52:54;13.88;;;7.65;;
64684;SDS011;51109;47.414;18.954;2022-12-16T17:55:39;19.73;;;8.68;;
64684;SDS011;51109;47.414;18.954;2022-12-16T17:58:35;10.88;;;4.72;;
64684;SDS011;51109;47.414;18.954;2022-12-16T18:01:20;17.05;;;8.23;;
64684;SDS011;51109;47.414;18.954;2022-12-16T18:04:06;10.23;;;5.03;;
64684;SDS011;51109;47.414;18.954;2022-12-16T18:06:51;2.55;;;2.40;;
64684;SDS011;51109;47.414;18.954;2022-12-16T18:09:35;12.05;;;6.78;;
64684;SDS011;51109;47.414;18.954;2022-12-16T18:12:20;21.83;;;8.70;;
64684;SDS011;51109;47.414;18.954;2022-12-16T18:15:05;18.80;;;6.97;;
64684;SDS011;51109;47.414;18.954;2022-12-16T18:17:50;16.48;;;8.00;;
64684;SDS011;51109;47.414;18.954;2022-12-16T18:20:35;22.90;;;8.63;;
64684;SDS011;51109;47.414;18.954;2022-12-16T18:23:33;9.30;;;5.00;;
64684;SDS011;51109;47.414;18.954;2022-12-16T18:26:17;15.48;;;5.97;;
64684;SDS011;51109;47.414;18.954;2022-12-16T18:29:02;21.73;;;6.80;;